createdAt,value
2022-09-16T00:01:29.517Z,3.23
2022-09-16T00:03:31.082Z,3.00
2022-09-16T00:05:32.580Z,2.90
2022-09-16T00:07:34.131Z,2.90
2022-09-16T00:09:38.525Z,2.87
2022-09-16T00:11:39.999Z,3.00
2022-09-16T00:13:41.602Z,2.90
2022-09-16T00:15:44.130Z,2.93
2022-09-16T00:17:45.635Z,3.10
2022-09-16T00:19:47.274Z,2.90
2022-09-16T00:21:48.967Z,2.70
2022-09-16T00:23:50.891Z,3.30
2022-09-16T00:25:55.331Z,2.87
2022-09-16T00:27:56.822Z,2.60
2022-09-16T00:29:58.529Z,3.20
2022-09-16T00:32:00.158Z,2.87
2022-09-16T00:34:01.660Z,3.00
2022-09-16T00:36:07.954Z,2.97
2022-09-16T00:38:09.532Z,3.03
2022-09-16T00:40:11.099Z,3.33
2022-09-16T00:42:13.996Z,3.03
2022-09-16T00:44:51.856Z,3.53
2022-09-16T00:46:55.089Z,2.90
2022-09-16T00:48:57.713Z,3.10
2022-09-16T00:51:03.625Z,3.03
2022-09-16T00:53:07.241Z,2.40
2022-09-16T00:55:15.326Z,4.10
2022-09-16T00:57:18.921Z,3.30
2022-09-16T00:59:24.025Z,2.83
2022-09-16T01:01:25.613Z,3.07
2022-09-16T01:03:30.119Z,3.80
2022-09-16T01:05:31.722Z,3.30
2022-09-16T01:07:36.765Z,3.67
2022-09-16T01:09:38.612Z,2.70
2022-09-16T01:11:40.085Z,3.20
2022-09-16T01:13:44.668Z,2.83
2022-09-16T01:15:55.573Z,3.60
2022-09-16T01:18:11.362Z,2.83
2022-09-16T01:20:40.054Z,3.20
2022-09-16T01:23:01.753Z,3.23
2022-09-16T01:25:18.875Z,2.83
2022-09-16T01:27:45.865Z,3.30
2022-09-16T01:30:43.779Z,2.87
2022-09-16T01:33:02.839Z,3.43
2022-09-16T01:35:11.467Z,2.73
2022-09-16T01:37:24.134Z,3.33
2022-09-16T01:39:32.423Z,3.57
2022-09-16T01:41:44.899Z,2.63
2022-09-16T01:43:55.849Z,3.10
2022-09-16T01:46:03.201Z,2.80
2022-09-16T01:48:11.864Z,3.37
2022-09-16T01:50:19.673Z,3.40
2022-09-16T01:52:32.377Z,3.33
2022-09-16T01:54:40.404Z,3.10
2022-09-16T01:56:46.066Z,3.07
2022-09-16T01:58:53.162Z,3.20
2022-09-16T02:01:04.005Z,3.10
2022-09-16T02:03:10.614Z,3.90
2022-09-16T02:05:16.312Z,3.40
2022-09-16T02:07:21.003Z,3.60
2022-09-16T02:09:26.869Z,3.47
2022-09-16T02:11:29.182Z,3.07
2022-09-16T02:13:35.412Z,3.00
2022-09-16T02:15:40.604Z,3.70
2022-09-16T02:17:47.565Z,3.47
2022-09-16T02:19:56.133Z,2.90
2022-09-16T02:22:01.631Z,4.10
2022-09-16T02:24:09.301Z,2.70
2022-09-16T02:26:15.239Z,2.90
2022-09-16T02:28:22.391Z,2.83
2022-09-16T02:30:23.952Z,3.20
2022-09-16T02:32:33.405Z,2.90
2022-09-16T02:34:40.810Z,3.20
2022-09-16T02:36:47.444Z,2.80
2022-09-16T02:38:53.403Z,3.27
2022-09-16T02:40:57.520Z,2.60
2022-09-16T02:42:59.634Z,2.97
2022-09-16T02:45:03.307Z,2.77
2022-09-16T02:47:12.942Z,2.57
2022-09-16T02:49:23.626Z,2.67
2022-09-16T02:51:32.456Z,2.87
2022-09-16T02:53:45.627Z,3.17
2022-09-16T02:55:54.098Z,3.27
2022-09-16T02:57:56.077Z,3.30
2022-09-16T02:59:57.918Z,3.03
2022-09-16T03:02:00.301Z,4.00
2022-09-16T03:04:02.644Z,3.63
2022-09-16T03:06:13.607Z,3.47
2022-09-16T03:08:15.122Z,3.60
2022-09-16T03:10:18.001Z,4.73
2022-09-16T03:12:33.210Z,3.20
2022-09-16T03:14:57.432Z,3.30
2022-09-16T03:17:09.139Z,3.10
2022-09-16T03:19:17.660Z,3.30
2022-09-16T03:21:26.287Z,2.80
2022-09-16T03:23:40.578Z,3.57
2022-09-16T03:25:54.328Z,3.07
2022-09-16T03:28:01.818Z,3.20
2022-09-16T03:30:05.623Z,2.70
2022-09-16T03:32:12.147Z,2.97
2022-09-16T03:34:20.009Z,4.20
2022-09-16T03:36:26.195Z,3.50
2022-09-16T03:38:28.200Z,3.70
2022-09-16T03:40:32.606Z,3.40
2022-09-16T03:42:38.730Z,3.43
2022-09-16T03:44:40.634Z,2.90
2022-09-16T03:46:42.335Z,4.10
2022-09-16T03:48:44.077Z,3.67
2022-09-16T03:50:47.868Z,4.03
2022-09-16T03:52:49.359Z,3.70
2022-09-16T03:54:50.838Z,4.20
2022-09-16T03:56:52.360Z,4.23
2022-09-16T03:58:55.284Z,3.00
2022-09-16T04:00:56.821Z,3.20
2022-09-16T04:03:00.289Z,3.00
2022-09-16T04:05:01.868Z,2.80
2022-09-16T04:07:03.511Z,3.00
2022-09-16T04:09:05.913Z,2.97
2022-09-16T04:11:07.425Z,3.03
2022-09-16T04:13:08.898Z,2.87
2022-09-16T04:15:12.264Z,3.20
2022-09-16T04:17:13.822Z,2.90
2022-09-16T04:19:15.443Z,3.60
2022-09-16T04:21:17.490Z,3.30
2022-09-16T04:23:19.009Z,3.07
2022-09-16T04:25:20.525Z,3.30
2022-09-16T04:27:22.090Z,2.80
2022-09-16T04:29:23.708Z,3.10
2022-09-16T04:31:26.850Z,3.93
2022-09-16T04:33:28.995Z,2.80
2022-09-16T04:35:30.683Z,2.87
2022-09-16T04:37:32.139Z,2.90
2022-09-16T04:39:33.655Z,3.77
2022-09-16T04:41:35.197Z,3.20
2022-09-16T04:43:36.865Z,3.03
2022-09-16T04:45:38.430Z,2.93
2022-09-16T04:47:41.255Z,3.10
2022-09-16T04:49:42.872Z,2.80
2022-09-16T04:51:44.652Z,3.40
2022-09-16T04:53:46.962Z,3.57
2022-09-16T04:55:48.486Z,2.87
2022-09-16T04:57:50.268Z,3.70
2022-09-16T04:59:51.769Z,2.90
2022-09-16T05:01:53.324Z,3.10
2022-09-16T05:03:58.391Z,3.70
2022-09-16T05:06:07.966Z,3.70
2022-09-16T05:08:09.448Z,3.80
2022-09-16T05:10:10.939Z,3.37
2022-09-16T05:12:12.434Z,3.33
2022-09-16T05:14:16.183Z,3.00
2022-09-16T05:16:20.067Z,3.57
2022-09-16T05:18:21.569Z,3.60
2022-09-16T05:20:24.513Z,2.87
2022-09-16T05:22:26.032Z,6.00
2022-09-16T05:24:27.491Z,4.60
2022-09-16T05:26:30.822Z,4.10
2022-09-16T05:28:32.739Z,2.87
2022-09-16T05:30:34.322Z,3.20
2022-09-16T05:32:35.943Z,3.33
2022-09-16T05:34:37.439Z,3.00
2022-09-16T05:36:41.735Z,3.07
2022-09-16T05:38:59.196Z,2.80
2022-09-16T05:41:06.904Z,3.00
2022-09-16T05:43:08.448Z,2.80
2022-09-16T05:45:10.433Z,3.83
2022-09-16T05:47:12.011Z,3.43
2022-09-16T05:49:13.504Z,3.80
2022-09-16T05:51:20.559Z,2.90
2022-09-16T05:53:24.980Z,3.00
2022-09-16T05:55:26.545Z,3.37
2022-09-16T05:57:28.047Z,3.50
2022-09-16T05:59:29.852Z,3.57
2022-09-16T06:01:33.514Z,2.73
2022-09-16T06:03:36.946Z,3.07
2022-09-16T06:05:41.438Z,3.40
2022-09-16T06:07:45.260Z,3.40
2022-09-16T06:09:48.229Z,3.87
2022-09-16T06:11:51.517Z,3.70
2022-09-16T06:13:54.097Z,4.00
2022-09-16T06:15:55.660Z,3.30
2022-09-16T06:17:57.230Z,3.47
2022-09-16T06:19:58.735Z,3.87
2022-09-16T06:22:00.249Z,3.30
2022-09-16T06:24:02.213Z,3.40
2022-09-16T06:26:07.133Z,3.03
2022-09-16T06:28:08.877Z,3.27
2022-09-16T06:30:11.367Z,3.77
2022-09-16T06:32:12.891Z,3.07
2022-09-16T06:34:16.539Z,4.80
2022-09-16T06:36:19.710Z,2.90
2022-09-16T06:38:21.308Z,3.60
2022-09-16T06:40:22.894Z,4.17
2022-09-16T06:42:25.798Z,3.00
2022-09-16T06:44:27.292Z,3.40
2022-09-16T06:46:29.654Z,3.50
2022-09-16T06:48:33.250Z,3.00
2022-09-16T06:50:34.772Z,3.03
2022-09-16T06:52:36.295Z,2.90
2022-09-16T06:54:37.841Z,3.67
2022-09-16T06:56:39.454Z,3.00
2022-09-16T06:58:45.023Z,2.97
2022-09-16T07:00:46.634Z,3.40
2022-09-16T07:02:48.309Z,3.27
2022-09-16T07:04:49.896Z,3.53
2022-09-16T07:07:08.564Z,2.80
2022-09-16T07:09:10.998Z,3.10
2022-09-16T07:11:14.909Z,2.73
2022-09-16T07:13:16.442Z,2.67
2022-09-16T07:15:19.447Z,9.20
2022-09-16T07:17:20.930Z,9.20
2022-09-16T07:19:22.499Z,4.50
2022-09-16T07:21:26.016Z,3.23
2022-09-16T07:23:29.114Z,3.90
2022-09-16T07:25:35.542Z,3.13
2022-09-16T07:27:37.374Z,3.27
2022-09-16T07:29:38.874Z,3.23
2022-09-16T07:31:42.252Z,3.27
2022-09-16T07:33:46.777Z,2.80
2022-09-16T07:35:51.239Z,3.00
2022-09-16T07:38:07.682Z,2.60
2022-09-16T07:40:10.030Z,2.77
2022-09-16T07:42:11.637Z,2.47
2022-09-16T07:44:19.076Z,3.20
2022-09-16T07:46:21.617Z,2.73
2022-09-16T07:48:23.517Z,2.83
2022-09-16T07:50:25.129Z,3.00
2022-09-16T07:52:26.912Z,2.87
2022-09-16T07:54:29.875Z,2.10
2022-09-16T07:56:33.401Z,2.40
2022-09-16T07:58:34.996Z,3.50
2022-09-16T08:00:36.513Z,2.30
2022-09-16T08:02:38.605Z,2.63
2022-09-16T08:04:40.303Z,2.37
2022-09-16T08:06:42.030Z,2.90
2022-09-16T08:08:44.528Z,2.50
2022-09-16T08:10:54.407Z,2.70
2022-09-16T08:12:56.172Z,2.53
2022-09-16T08:14:58.184Z,2.50
2022-09-16T08:16:59.766Z,2.33
2022-09-16T08:19:01.410Z,2.37
2022-09-16T08:21:05.579Z,2.00
2022-09-16T08:23:07.279Z,2.20
2022-09-16T08:25:09.123Z,2.50
2022-09-16T08:27:12.080Z,2.53
2022-09-16T08:29:13.976Z,2.60
2022-09-16T08:31:16.050Z,2.40
2022-09-16T08:33:17.741Z,2.30
2022-09-16T08:35:19.223Z,2.27
2022-09-16T08:37:20.813Z,2.30
2022-09-16T08:39:22.357Z,2.30
2022-09-16T08:41:40.010Z,2.67
2022-09-16T08:43:51.363Z,2.70
2022-09-16T08:45:57.346Z,1.93
2022-09-16T08:48:09.885Z,2.20
2022-09-16T08:50:19.117Z,2.17
2022-09-16T08:52:28.834Z,2.70
2022-09-16T08:54:35.151Z,2.70
2022-09-16T08:56:40.388Z,2.57
2022-09-16T08:58:46.988Z,2.30
2022-09-16T09:00:53.153Z,2.00
2022-09-16T09:02:58.828Z,2.33
2022-09-16T09:05:01.322Z,1.90
2022-09-16T09:07:12.591Z,1.97
2022-09-16T09:09:26.757Z,2.23
2022-09-16T09:11:35.116Z,2.50
2022-09-16T09:13:57.558Z,2.17
2022-09-16T09:16:09.937Z,2.33
2022-09-16T09:18:29.507Z,2.37
2022-09-16T09:20:45.495Z,2.53
2022-09-16T09:23:02.283Z,2.90
2022-09-16T09:25:21.999Z,1.80
2022-09-16T09:27:27.578Z,2.13
2022-09-16T09:29:52.948Z,1.70
2022-09-16T09:31:59.694Z,1.53
2022-09-16T09:34:08.988Z,2.20
2022-09-16T09:36:36.295Z,2.50
2022-09-16T09:39:14.444Z,2.30
2022-09-16T09:41:23.735Z,1.67
2022-09-16T09:43:31.661Z,2.10
2022-09-16T09:45:37.668Z,2.10
2022-09-16T09:47:43.843Z,1.90
2022-09-16T09:49:49.832Z,1.60
2022-09-16T09:51:56.889Z,1.63
2022-09-16T09:54:02.745Z,1.87
2022-09-16T09:56:15.738Z,1.70
2022-09-16T09:58:26.717Z,1.43
2022-09-16T10:00:28.739Z,1.70
2022-09-16T10:02:31.826Z,1.70
2022-09-16T10:04:38.079Z,1.90
2022-09-16T10:06:39.778Z,1.80
2022-09-16T10:08:45.663Z,1.60
2022-09-16T10:10:49.730Z,1.70
2022-09-16T10:12:51.480Z,1.47
2022-09-16T10:14:53.022Z,1.57
2022-09-16T10:16:55.167Z,1.27
2022-09-16T10:19:02.850Z,1.50
2022-09-16T10:21:07.906Z,1.50
2022-09-16T10:23:12.846Z,1.60
2022-09-16T10:25:23.434Z,1.50
2022-09-16T10:27:27.343Z,1.67
2022-09-16T10:29:29.385Z,1.40
2022-09-16T10:31:36.652Z,1.40
2022-09-16T10:33:43.449Z,1.37
2022-09-16T10:35:54.731Z,1.60
2022-09-16T10:37:58.193Z,2.00
2022-09-16T10:40:00.018Z,1.80
2022-09-16T10:42:03.002Z,1.60
2022-09-16T10:44:17.223Z,1.73
2022-09-16T10:46:19.923Z,2.20
2022-09-16T10:48:26.502Z,1.80
2022-09-16T10:50:28.408Z,1.40
2022-09-16T10:52:32.578Z,1.90
2022-09-16T10:54:34.460Z,1.73
2022-09-16T10:56:49.915Z,1.70
2022-09-16T10:59:01.955Z,1.40
2022-09-16T11:01:21.702Z,1.87
2022-09-16T11:03:59.074Z,1.40
2022-09-16T11:06:15.990Z,1.23
2022-09-16T11:08:31.582Z,1.50
2022-09-16T11:10:40.734Z,1.67
2022-09-16T11:13:11.293Z,1.70
2022-09-16T11:15:24.952Z,1.63
2022-09-16T11:17:38.272Z,1.30
2022-09-16T11:20:01.910Z,1.43
2022-09-16T11:22:17.821Z,1.53
2022-09-16T11:24:41.358Z,1.50
2022-09-16T11:26:50.869Z,1.60
2022-09-16T11:29:07.496Z,1.40
2022-09-16T11:31:20.843Z,1.40
2022-09-16T11:33:30.301Z,1.60
2022-09-16T11:36:13.954Z,1.60
2022-09-16T11:38:26.127Z,1.30
2022-09-16T11:40:42.731Z,1.97
2022-09-16T11:42:51.478Z,1.40
2022-09-16T11:44:59.655Z,1.43
2022-09-16T11:47:14.681Z,1.70
2022-09-16T11:49:30.228Z,1.63
2022-09-16T11:51:50.108Z,1.10
2022-09-16T11:54:04.808Z,1.30
2022-09-16T11:56:15.567Z,1.27
2022-09-16T11:58:35.043Z,1.47
2022-09-16T12:00:39.586Z,1.60
2022-09-16T12:02:46.733Z,1.10
2022-09-16T12:04:53.743Z,1.33
2022-09-16T12:07:03.408Z,1.50
2022-09-16T12:09:11.059Z,1.43
2022-09-16T12:11:22.062Z,1.53
2022-09-16T12:13:27.526Z,1.40
2022-09-16T12:17:49.201Z,1.53
2022-09-16T12:19:55.972Z,1.77
2022-09-16T12:22:04.007Z,1.70
2022-09-16T12:24:14.651Z,1.20
2022-09-16T12:26:20.059Z,1.70
2022-09-16T12:28:26.432Z,1.23
2022-09-16T12:30:34.731Z,1.63
2022-09-16T12:32:47.120Z,1.53
2022-09-16T12:34:53.133Z,1.83
2022-09-16T12:37:00.782Z,1.73
2022-09-16T12:39:02.404Z,1.40
2022-09-16T12:41:22.659Z,1.23
2022-09-16T12:43:49.925Z,1.17
2022-09-16T12:46:21.258Z,1.50
2022-09-16T12:48:46.950Z,1.30
2022-09-16T12:51:15.806Z,1.30
2022-09-16T12:53:49.688Z,1.67
2022-09-16T12:56:02.690Z,1.20
2022-09-16T12:58:21.105Z,1.60
2022-09-16T13:00:28.476Z,1.30
2022-09-16T13:02:37.295Z,1.43
2022-09-16T13:04:42.724Z,1.47
2022-09-16T13:06:48.084Z,1.47
2022-09-16T13:08:50.336Z,1.40
2022-09-16T13:11:28.022Z,1.50
2022-09-16T13:13:31.690Z,1.37
2022-09-16T13:15:37.239Z,1.33
2022-09-16T13:17:40.123Z,1.20
2022-09-16T13:19:47.930Z,3.50
2022-09-16T13:21:54.292Z,1.73
2022-09-16T13:24:02.226Z,1.60
2022-09-16T13:26:06.151Z,1.57
2022-09-16T13:28:24.326Z,1.57
2022-09-16T13:30:36.424Z,1.70
2022-09-16T13:32:42.348Z,1.43
2022-09-16T13:34:43.826Z,1.57
2022-09-16T13:36:45.433Z,1.30
2022-09-16T13:38:48.821Z,1.30
2022-09-16T13:40:57.943Z,1.60
2022-09-16T13:43:14.031Z,1.60
2022-09-16T13:45:31.868Z,1.57
2022-09-16T13:47:36.990Z,1.43
2022-09-16T13:49:48.848Z,1.70
2022-09-16T13:51:51.843Z,1.90
2022-09-16T13:53:53.446Z,1.70
2022-09-16T13:56:00.844Z,1.70
2022-09-16T13:58:10.531Z,1.33
2022-09-16T14:00:17.470Z,1.60
2022-09-16T14:02:28.820Z,1.60
2022-09-16T14:04:48.627Z,1.43
2022-09-16T14:07:11.103Z,1.20
2022-09-16T14:09:27.299Z,1.70
2022-09-16T14:11:34.434Z,1.57
2022-09-16T14:13:40.714Z,2.30
2022-09-16T14:15:45.187Z,1.73
2022-09-16T14:17:51.703Z,1.50
2022-09-16T14:19:58.694Z,1.50
2022-09-16T14:22:02.675Z,2.10
2022-09-16T14:24:15.071Z,1.70
2022-09-16T14:26:18.341Z,2.37
2022-09-16T14:28:21.604Z,1.80
2022-09-16T14:30:23.161Z,1.57
2022-09-16T14:32:27.159Z,1.43
2022-09-16T14:34:33.003Z,1.40
2022-09-16T14:36:38.920Z,1.60
2022-09-16T14:38:46.641Z,1.37
2022-09-16T14:40:48.547Z,1.17
2022-09-16T14:42:54.019Z,1.00
2022-09-16T14:44:57.651Z,1.07
2022-09-16T14:47:09.127Z,1.00
2022-09-16T14:49:16.462Z,0.80
2022-09-16T14:51:22.927Z,0.70
2022-09-16T14:53:35.798Z,0.77
2022-09-16T14:55:47.953Z,0.90
2022-09-16T14:57:50.239Z,0.90
2022-09-16T14:59:54.639Z,0.90
2022-09-16T15:02:01.807Z,1.03
2022-09-16T15:04:07.920Z,0.90
2022-09-16T15:06:14.151Z,0.90
2022-09-16T15:08:20.476Z,1.03
2022-09-16T15:10:26.887Z,0.90
2022-09-16T15:12:31.095Z,1.20
2022-09-16T15:14:37.043Z,1.17
2022-09-16T15:16:43.877Z,1.00
2022-09-16T15:18:53.428Z,0.80
2022-09-16T15:21:06.994Z,0.83
2022-09-16T15:23:20.734Z,1.00
2022-09-16T15:25:26.291Z,1.07
2022-09-16T15:27:29.583Z,1.60
2022-09-16T15:29:32.983Z,0.93
2022-09-16T15:31:37.131Z,1.27
2022-09-16T15:33:41.865Z,1.10
2022-09-16T15:35:48.839Z,1.10
2022-09-16T15:37:50.975Z,1.30
2022-09-16T15:39:52.593Z,1.33
2022-09-16T15:42:11.651Z,1.30
2022-09-16T15:44:17.066Z,1.20
2022-09-16T15:46:21.531Z,1.30
2022-09-16T15:48:25.040Z,0.90
2022-09-16T15:50:36.905Z,0.93
2022-09-16T15:52:55.576Z,0.90
2022-09-16T15:55:00.657Z,0.80
2022-09-16T15:57:09.352Z,1.17
2022-09-16T15:59:25.333Z,1.00
2022-09-16T16:01:53.606Z,1.27
2022-09-16T16:03:57.298Z,0.63
2022-09-16T16:05:58.978Z,0.80
2022-09-16T16:08:06.174Z,1.10
2022-09-16T16:10:13.340Z,0.93
2022-09-16T16:12:17.055Z,0.90
2022-09-16T16:14:20.970Z,0.80
2022-09-16T16:16:23.299Z,1.17
2022-09-16T16:18:25.043Z,1.20
2022-09-16T16:20:27.217Z,3.03
2022-09-16T16:22:29.078Z,6.10
2022-09-16T16:24:30.996Z,2.43
2022-09-16T16:26:32.603Z,2.00
2022-09-16T16:28:36.027Z,2.23
2022-09-16T16:30:37.664Z,1.23
2022-09-16T16:32:39.214Z,1.10
2022-09-16T16:34:42.746Z,0.90
2022-09-16T16:36:44.286Z,1.17
2022-09-16T16:38:46.162Z,1.17
2022-09-16T16:40:50.370Z,1.00
2022-09-16T16:42:52.057Z,1.10
2022-09-16T16:44:55.011Z,1.10
2022-09-16T16:46:56.582Z,1.30
2022-09-16T16:48:58.272Z,1.00
2022-09-16T16:51:01.608Z,1.20
2022-09-16T16:53:03.157Z,1.40
2022-09-16T16:55:05.631Z,1.10
2022-09-16T16:57:07.682Z,1.13
2022-09-16T16:59:09.371Z,0.93
2022-09-16T17:01:14.278Z,1.00
2022-09-16T17:03:16.196Z,0.97
2022-09-16T17:05:17.852Z,1.10
2022-09-16T17:07:26.054Z,1.20
2022-09-16T17:09:28.107Z,1.20
2022-09-16T17:11:30.082Z,0.83
2022-09-16T17:13:31.722Z,1.20
2022-09-16T17:15:33.390Z,0.80
2022-09-16T17:17:36.300Z,1.20
2022-09-16T17:19:38.154Z,1.40
2022-09-16T17:21:40.540Z,0.87
2022-09-16T17:23:42.935Z,1.07
2022-09-16T17:25:49.724Z,1.20
2022-09-16T17:27:51.604Z,1.43
2022-09-16T17:29:53.719Z,1.07
2022-09-16T17:31:55.521Z,0.80
2022-09-16T17:34:00.525Z,0.70
2022-09-16T17:36:03.867Z,0.93
2022-09-16T17:38:07.060Z,0.93
2022-09-16T17:40:09.403Z,0.80
2022-09-16T17:42:11.236Z,0.90
2022-09-16T17:44:14.197Z,0.90
2022-09-16T17:46:17.254Z,1.17
2022-09-16T17:48:19.086Z,0.97
2022-09-16T17:50:23.118Z,0.80
2022-09-16T17:52:24.898Z,0.70
2022-09-16T17:54:26.529Z,0.90
2022-09-16T17:56:28.471Z,1.30
2022-09-16T17:58:30.566Z,1.00
2022-09-16T18:00:32.233Z,0.83
2022-09-16T18:02:35.280Z,1.50
2022-09-16T18:04:37.035Z,2.17
2022-09-16T18:06:43.066Z,1.93
2022-09-16T18:08:45.298Z,1.93
2022-09-16T18:10:52.152Z,2.10
2022-09-16T18:12:54.010Z,2.00
2022-09-16T18:14:55.728Z,2.97
2022-09-16T18:16:57.525Z,2.20
2022-09-16T18:19:01.674Z,2.50
2022-09-16T18:21:05.206Z,1.37
2022-09-16T18:23:08.423Z,1.70
2022-09-16T18:25:10.048Z,1.50
2022-09-16T18:27:11.632Z,1.27
2022-09-16T18:29:14.147Z,1.83
2022-09-16T18:31:18.548Z,1.90
2022-09-16T18:33:20.359Z,1.80
2022-09-16T18:35:22.249Z,1.83
2022-09-16T18:37:23.846Z,1.20
2022-09-16T18:39:27.019Z,1.30
2022-09-16T18:41:30.041Z,1.80
2022-09-16T18:43:31.901Z,1.60
2022-09-16T18:45:33.643Z,1.73
2022-09-16T18:47:35.268Z,1.70
2022-09-16T18:49:36.883Z,1.40
2022-09-16T18:51:39.956Z,1.27
2022-09-16T18:53:41.528Z,1.47
2022-09-16T18:55:44.491Z,1.30
2022-09-16T18:57:46.206Z,1.70
2022-09-16T18:59:47.809Z,1.40
2022-09-16T19:01:52.415Z,1.47
2022-09-16T19:03:57.388Z,1.37
2022-09-16T19:05:58.965Z,1.33
2022-09-16T19:08:00.874Z,1.10
2022-09-16T19:10:02.629Z,1.67
2022-09-16T19:12:06.178Z,2.07
2022-09-16T19:14:09.923Z,1.50
2022-09-16T19:16:12.833Z,1.33
2022-09-16T19:18:14.435Z,1.33
2022-09-16T19:20:16.500Z,1.60
2022-09-16T19:22:18.338Z,1.60
2022-09-16T19:24:23.277Z,1.63
2022-09-16T19:26:25.517Z,1.50
2022-09-16T19:28:28.692Z,1.40
2022-09-16T19:30:30.368Z,1.57
2022-09-16T19:32:31.983Z,1.20
2022-09-16T19:34:33.725Z,1.40
2022-09-16T19:36:36.442Z,1.40
2022-09-16T19:38:38.036Z,1.20
2022-09-16T19:40:39.597Z,1.37
2022-09-16T19:42:41.195Z,1.03
2022-09-16T19:44:44.245Z,1.60
2022-09-16T19:46:46.032Z,1.00
2022-09-16T19:48:49.143Z,1.13
2022-09-16T19:50:51.685Z,1.03
2022-09-16T19:52:53.414Z,1.23
2022-09-16T19:54:55.114Z,1.13
2022-09-16T19:56:56.721Z,1.13
2022-09-16T19:58:58.906Z,1.00
2022-09-16T20:01:04.854Z,1.03
2022-09-16T20:03:06.452Z,1.10
2022-09-16T20:05:09.299Z,1.20
2022-09-16T20:07:10.874Z,1.70
2022-09-16T20:09:12.948Z,1.23
2022-09-16T20:11:16.357Z,1.27
2022-09-16T20:13:18.515Z,1.47
2022-09-16T20:15:20.092Z,1.30
2022-09-16T20:17:23.093Z,1.20
2022-09-16T20:19:24.740Z,1.03
2022-09-16T20:21:27.053Z,1.50
2022-09-16T20:23:28.787Z,1.13
2022-09-16T20:25:30.704Z,1.00
2022-09-16T20:27:32.261Z,0.97
2022-09-16T20:29:33.912Z,1.20
2022-09-16T20:31:37.194Z,0.90
2022-09-16T20:33:40.836Z,0.80
2022-09-16T20:35:42.429Z,0.83
2022-09-16T20:37:46.528Z,1.00
2022-09-16T20:39:48.248Z,1.13
2022-09-16T20:41:49.961Z,1.00
2022-09-16T20:43:52.465Z,0.77
2022-09-16T20:45:55.164Z,1.00
2022-09-16T20:47:56.757Z,1.10
2022-09-16T20:49:59.746Z,0.93
2022-09-16T20:52:01.651Z,0.80
2022-09-16T20:54:07.627Z,1.00
2022-09-16T20:56:11.797Z,0.90
2022-09-16T20:58:13.495Z,1.30
2022-09-16T21:00:15.374Z,0.80
2022-09-16T21:02:17.170Z,0.90
2022-09-16T21:04:20.623Z,0.90
2022-09-16T21:06:25.292Z,0.93
2022-09-16T21:08:29.784Z,1.03
2022-09-16T21:10:38.027Z,1.00
2022-09-16T21:12:39.659Z,1.10
2022-09-16T21:14:41.160Z,5.77
2022-09-16T21:16:44.012Z,2.10
2022-09-16T21:18:45.789Z,1.87
2022-09-16T21:20:47.619Z,1.50
2022-09-16T21:22:50.653Z,1.10
2022-09-16T21:24:52.249Z,1.60
2022-09-16T21:26:53.864Z,1.33
2022-09-16T21:28:57.550Z,1.23
2022-09-16T21:31:01.022Z,1.43
2022-09-16T21:33:02.678Z,1.43
2022-09-16T21:35:05.140Z,1.20
2022-09-16T21:37:06.658Z,1.17
2022-09-16T21:39:10.474Z,2.20
2022-09-16T21:41:14.038Z,1.50
2022-09-16T21:43:18.577Z,1.30
2022-09-16T21:45:20.330Z,1.37
2022-09-16T21:47:21.894Z,1.30
2022-09-16T21:49:23.643Z,1.90
2022-09-16T21:51:25.345Z,1.53
2022-09-16T21:53:26.890Z,1.30
2022-09-16T21:55:31.304Z,1.20
2022-09-16T21:57:32.839Z,1.20
2022-09-16T21:59:34.754Z,1.20
2022-09-16T22:01:37.209Z,1.20
2022-09-16T22:03:39.648Z,1.40
2022-09-16T22:05:41.187Z,1.40
2022-09-16T22:07:42.736Z,1.47
2022-09-16T22:09:44.239Z,1.30
2022-09-16T22:11:47.860Z,1.57
2022-09-16T22:13:51.277Z,1.87
2022-09-16T22:15:52.843Z,1.00
2022-09-16T22:17:54.413Z,2.53
2022-09-16T22:19:55.975Z,1.73
2022-09-16T22:21:57.478Z,1.40
2022-09-16T22:23:59.832Z,1.20
2022-09-16T22:26:04.490Z,1.70
2022-09-16T22:28:07.418Z,1.40
2022-09-16T22:30:10.810Z,1.33
2022-09-16T22:32:12.552Z,1.37
2022-09-16T22:34:14.056Z,1.50
2022-09-16T22:36:17.874Z,1.50
2022-09-16T22:38:19.553Z,1.60
2022-09-16T22:40:21.579Z,1.50
2022-09-16T22:42:23.101Z,1.80
2022-09-16T22:44:26.005Z,1.50
2022-09-16T22:46:29.974Z,2.47
2022-09-16T22:48:31.731Z,2.10
2022-09-16T22:50:33.248Z,1.73
2022-09-16T22:52:35.108Z,1.40
2022-09-16T22:54:36.626Z,1.50
2022-09-16T22:56:38.205Z,1.50
2022-09-16T22:58:39.993Z,1.50
2022-09-16T23:00:42.953Z,1.53
2022-09-16T23:02:44.481Z,1.20
2022-09-16T23:04:45.995Z,1.70
2022-09-16T23:06:47.761Z,1.20
2022-09-16T23:08:49.390Z,1.77
2022-09-16T23:10:51.536Z,1.77
2022-09-16T23:12:53.136Z,1.73
2022-09-16T23:14:54.720Z,1.57
2022-09-16T23:16:57.718Z,1.33
2022-09-16T23:19:00.739Z,1.37
2022-09-16T23:21:04.030Z,1.23
2022-09-16T23:23:06.125Z,1.60
2022-09-16T23:25:08.710Z,1.70
2022-09-16T23:27:10.257Z,1.57
2022-09-16T23:29:13.045Z,1.63
2022-09-16T23:31:17.286Z,1.43
2022-09-16T23:33:20.318Z,1.30
2022-09-16T23:35:21.873Z,1.50
2022-09-16T23:37:23.366Z,1.40
2022-09-16T23:39:25.012Z,1.30
2022-09-16T23:41:26.553Z,1.20
2022-09-16T23:43:28.048Z,1.30
2022-09-16T23:45:29.566Z,1.30
2022-09-16T23:47:31.069Z,1.70
2022-09-16T23:49:33.940Z,1.73
2022-09-16T23:51:35.696Z,1.50
2022-09-16T23:53:38.125Z,1.97
2022-09-16T23:55:43.353Z,1.57
2022-09-16T23:57:47.903Z,1.40
2022-09-16T23:59:49.505Z,1.60
